Adventure Cat 2 — WDA9411 — position and weather

sailwx.info

Track history (hours):
 
Tides and Currents Weather Stations Pressure Air Temp Water Temp Dewpoint Dewpoint Depression Visibility Wind Speed Wind Dir Waves Ship Positions

Adventure Cat 2

Owner: ADVENTURE CAT INC, NAPA, CA. More information available from US FCC via Universal Licensing System and Coast Guard Vessel Documentation Center.

Last reported at 2017-Dec-04 01:25 UTC. Time now 2017-Dec-13 07:21 UTC.
Position N 37°49' W 122°25'.
Warning: this ship's position is 9 days out of date.

Length 20 m; draft 3 m.

Type: Sailing vessel. MMSI: 366864850.

Date/timePositionNaut miles runAvg speedWind from/ knotsBaromVisibWave heightAir tempDewpointWater temp
2017-Dec-04 01:25N 37°49' W 122°25'3 7.5
2017-Dec-04 01:01N 37°49' W 122°29'2 3.7
2017-Dec-04 00:31N 37°50' W 122°26'1 0.7
2017-Dec-03 22:28N 37°49' W 122°25'3 6.6
2017-Dec-03 22:00N 37°49' W 122°29'1 2.5
2017-Dec-03 21:30N 37°49' W 122°27'2 0.1
2017-Dec-03 01:20N 37°49' W 122°25'2 6.4
2017-Dec-03 01:00N 37°49' W 122°28'1 3.0
2017-Dec-03 00:31N 37°50' W 122°28'3 1.4
2017-Dec-02 22:21N 37°49' W 122°25'2 5.4
2017-Dec-02 22:01N 37°49' W 122°27'2 3.9
2017-Dec-02 21:30N 37°49' W 122°29'4 0.2
2017-Dec-02 01:28N 37°49' W 122°25'3 7.1
2017-Dec-02 01:00N 37°49' W 122°29'2 4.2
2017-Dec-02 00:30N 37°50' W 122°26'1 0.7
2017-Dec-01 22:23N 37°49' W 122°25'2 6.5
2017-Dec-01 22:00N 37°49' W 122°28'1 1.9
2017-Dec-01 21:30N 37°49' W 122°29'3 0.1
2017-Nov-30 20:36N 37°49' W 122°25'0 0.1
2017-Nov-30 20:05N 37°49' W 122°25'1 0.0
2017-Nov-28 23:52N 37°49' W 122°24'1 3.3
2017-Nov-28 23:30N 37°49' W 122°26'1 1.8
2017-Nov-28 23:00N 37°49' W 122°27'1 1.9
2017-Nov-28 22:30N 37°49' W 122°28'1 2.2
2017-Nov-28 22:00N 37°49' W 122°29'1 2.9
2017-Nov-28 21:30N 37°51' W 122°28'1 2.1
2017-Nov-28 21:00N 37°51' W 122°27'1 3.0
2017-Nov-28 20:30N 37°51' W 122°25'2 0.0
2017-Nov-27 01:27N 37°49' W 122°25'2 4.7
2017-Nov-27 01:00N 37°50' W 122°27'1 2.8
2017-Nov-27 00:30N 37°49' W 122°29'3 1.5
2017-Nov-26 22:24N 37°49' W 122°25'1 3.5
2017-Nov-26 22:00N 37°50' W 122°26'2 3.8
2017-Nov-26 21:30N 37°49' W 122°28'3 0.1
2017-Nov-26 01:38N 37°49' W 122°25'1 5.5
2017-Nov-26 01:31N 37°49' W 122°25'1 2.8
2017-Nov-26 01:01N 37°49' W 122°27'1 1.5
2017-Nov-26 00:30N 37°49' W 122°28'2 1.0
2017-Nov-25 22:21N 37°49' W 122°25'3 7.5
2017-Nov-25 22:00N 37°49' W 122°28'2 3.2
2017-Nov-25 21:30N 37°50' W 122°26'1 0.1
2017-Nov-25 01:29N 37°49' W 122°25'3 5.6
2017-Nov-25 01:00N 37°49' W 122°28'1 2.5
2017-Nov-25 00:30N 37°49' W 122°26'1 0.7
2017-Nov-24 22:30N 37°49' W 122°25'3 5.0
2017-Nov-24 22:00N 37°49' W 122°28'1 1.6
2017-Nov-24 21:30N 37°50' W 122°27'  
Track history (hours):
 
Tides and Currents Weather Stations Pressure Air Temp Water Temp Dewpoint Dewpoint Depression Visibility Wind Speed Wind Dir Waves Ship Positions

Adventure Cat 2

Owner: ADVENTURE CAT INC, NAPA, CA. More information available from US FCC via Universal Licensing System and Coast Guard Vessel Documentation Center.

Last reported at 2017-Dec-04 01:25 UTC. Time now 2017-Dec-13 07:22 UTC.
Position N 37°49' W 122°25'.
Warning: this ship's position is 9 days out of date.

Length 20 m; draft 3 m.

Type: Sailing vessel. MMSI: 366864850.

Date/timePositionNaut miles runAvg speedWind from/ knotsBaromVisibWave heightAir tempDewpointWater temp
2017-Dec-04 01:25N 37°49' W 122°25'3 7.5
2017-Dec-04 01:01N 37°49' W 122°29'2 3.7
2017-Dec-04 00:31N 37°50' W 122°26'1 0.7
2017-Dec-03 22:28N 37°49' W 122°25'3 6.6
2017-Dec-03 22:00N 37°49' W 122°29'1 2.5
2017-Dec-03 21:30N 37°49' W 122°27'2 0.1
2017-Dec-03 01:20N 37°49' W 122°25'2 6.4
2017-Dec-03 01:00N 37°49' W 122°28'1 3.0
2017-Dec-03 00:31N 37°50' W 122°28'3 1.4
2017-Dec-02 22:21N 37°49' W 122°25'2 5.4
2017-Dec-02 22:01N 37°49' W 122°27'2 3.9
2017-Dec-02 21:30N 37°49' W 122°29'4 0.2
2017-Dec-02 01:28N 37°49' W 122°25'3 7.1
2017-Dec-02 01:00N 37°49' W 122°29'2 4.2
2017-Dec-02 00:30N 37°50' W 122°26'1 0.7
2017-Dec-01 22:23N 37°49' W 122°25'2 6.5
2017-Dec-01 22:00N 37°49' W 122°28'1 1.9
2017-Dec-01 21:30N 37°49' W 122°29'3 0.1
2017-Nov-30 20:36N 37°49' W 122°25'0 0.1
2017-Nov-30 20:05N 37°49' W 122°25'1 0.0
2017-Nov-28 23:52N 37°49' W 122°24'1 3.3
2017-Nov-28 23:30N 37°49' W 122°26'1 1.8
2017-Nov-28 23:00N 37°49' W 122°27'1 1.9
2017-Nov-28 22:30N 37°49' W 122°28'1 2.2
2017-Nov-28 22:00N 37°49' W 122°29'1 2.9
2017-Nov-28 21:30N 37°51' W 122°28'1 2.1
2017-Nov-28 21:00N 37°51' W 122°27'1 3.0
2017-Nov-28 20:30N 37°51' W 122°25'2 0.0
2017-Nov-27 01:27N 37°49' W 122°25'2 4.7
2017-Nov-27 01:00N 37°50' W 122°27'1 2.8
2017-Nov-27 00:30N 37°49' W 122°29'3 1.5
2017-Nov-26 22:24N 37°49' W 122°25'1 3.5
2017-Nov-26 22:00N 37°50' W 122°26'2 3.8
2017-Nov-26 21:30N 37°49' W 122°28'3 0.1
2017-Nov-26 01:38N 37°49' W 122°25'1 5.5
2017-Nov-26 01:31N 37°49' W 122°25'1 2.8
2017-Nov-26 01:01N 37°49' W 122°27'1 1.5
2017-Nov-26 00:30N 37°49' W 122°28'2 1.0
2017-Nov-25 22:21N 37°49' W 122°25'3 7.5
2017-Nov-25 22:00N 37°49' W 122°28'2 3.2
2017-Nov-25 21:30N 37°50' W 122°26'1 0.1
2017-Nov-25 01:29N 37°49' W 122°25'3 5.6
2017-Nov-25 01:00N 37°49' W 122°28'1 2.5
2017-Nov-25 00:30N 37°49' W 122°26'1 0.7
2017-Nov-24 22:30N 37°49' W 122°25'3 5.0
2017-Nov-24 22:00N 37°49' W 122°28'1 1.6
2017-Nov-24 21:30N 37°50' W 122°27'  

Dump ship's entire track history